createdAt,value
2018-09-17T00:01:29.870Z,101432.62
2018-09-17T00:03:59.382Z,101438.00
2018-09-17T00:06:28.902Z,101437.28
2018-09-17T00:08:58.386Z,101433.13
2018-09-17T00:11:27.877Z,101426.00
2018-09-17T00:13:57.486Z,101426.27
2018-09-17T00:16:27.313Z,101429.70
2018-09-17T00:18:56.717Z,101430.42
2018-09-17T00:21:26.795Z,101427.50
2018-09-17T00:23:56.220Z,101424.44
2018-09-17T00:26:26.697Z,101427.88
2018-09-17T00:28:56.072Z,101428.86
2018-09-17T00:31:25.357Z,101426.66
2018-09-17T00:33:56.735Z,101443.39
2018-09-17T00:36:26.150Z,101438.84
2018-09-17T00:38:55.647Z,101435.54
2018-09-17T00:41:25.743Z,101434.31
2018-09-17T00:43:54.957Z,101428.44
2018-09-17T00:46:24.255Z,101427.59
2018-09-17T00:48:53.552Z,101431.88
2018-09-17T00:51:22.877Z,101422.31
2018-09-17T00:53:52.222Z,101430.89
2018-09-17T00:56:21.537Z,101423.66
2018-09-17T00:58:50.781Z,101424.64
2018-09-17T01:01:20.148Z,101422.81
2018-09-17T01:03:49.337Z,101419.25
2018-09-17T01:06:18.537Z,101424.27
2018-09-17T01:08:47.919Z,101421.91
2018-09-17T01:11:17.759Z,101419.97
2018-09-17T01:13:47.094Z,101410.19
2018-09-17T01:16:17.088Z,101407.98
2018-09-17T01:18:46.410Z,101399.80
2018-09-17T01:21:15.654Z,101398.44
2018-09-17T01:23:45.070Z,101390.61
2018-09-17T01:26:14.777Z,101385.73
2018-09-17T01:28:44.902Z,101391.34
2018-09-17T01:31:14.285Z,101389.77
2018-09-17T01:33:43.518Z,101388.05
2018-09-17T01:36:13.116Z,101382.05
2018-09-17T01:38:42.484Z,101382.41
2018-09-17T01:41:11.835Z,101376.09
2018-09-17T01:43:41.092Z,101360.67
2018-09-17T01:46:12.474Z,101370.20
2018-09-17T01:48:41.657Z,101357.48
2018-09-17T01:51:10.870Z,101354.81
2018-09-17T01:53:41.023Z,101366.30
2018-09-17T01:56:10.280Z,101366.31
2018-09-17T01:58:39.557Z,101367.52
2018-09-17T02:01:08.892Z,101365.08
2018-09-17T02:03:38.274Z,101363.63
2018-09-17T02:06:07.631Z,101368.75
2018-09-17T02:08:37.063Z,101366.42
2018-09-17T02:11:06.285Z,101370.33
2018-09-17T02:13:35.792Z,101376.34
2018-09-17T02:16:05.138Z,101380.38
2018-09-17T02:18:35.675Z,101390.16
2018-09-17T02:21:05.057Z,101389.89
2018-09-17T02:23:34.586Z,101392.98
2018-09-17T02:26:03.830Z,101384.64
2018-09-17T02:28:33.217Z,101395.77
2018-09-17T02:31:02.904Z,101396.52
2018-09-17T02:33:32.157Z,101411.08
2018-09-17T02:36:01.544Z,101412.05
2018-09-17T02:38:31.458Z,101411.18
2018-09-17T02:41:00.769Z,101418.02
2018-09-17T02:43:30.247Z,101414.38
2018-09-17T02:45:59.646Z,101422.81
2018-09-17T02:48:28.970Z,101418.42
2018-09-17T02:50:58.266Z,101424.53
2018-09-17T02:53:28.322Z,101423.03
2018-09-17T02:55:57.641Z,101425.73
2018-09-17T02:58:27.018Z,101423.39
2018-09-17T03:00:56.830Z,101431.73
2018-09-17T03:03:26.080Z,101447.38
2018-09-17T03:05:56.305Z,101450.90
2018-09-17T03:08:25.826Z,101443.93
2018-09-17T03:10:55.155Z,101446.41
2018-09-17T03:13:24.425Z,101448.21
2018-09-17T03:15:55.477Z,101447.23
2018-09-17T03:18:37.161Z,101450.27
2018-09-17T03:21:07.578Z,101440.70
2018-09-17T03:23:38.603Z,101445.44
2018-09-17T03:26:07.866Z,101453.50
2018-09-17T03:28:37.979Z,101440.39
2018-09-17T03:31:07.541Z,101444.05
2018-09-17T03:33:36.860Z,101444.30
2018-09-17T03:36:06.541Z,101431.92
2018-09-17T03:38:47.744Z,101434.25
2018-09-17T03:41:18.338Z,101437.91
2018-09-17T03:43:49.175Z,101436.16
2018-09-17T03:46:18.504Z,101432.12
2018-09-17T03:48:47.822Z,101435.79
2018-09-17T03:51:17.713Z,101433.71
2018-09-17T03:53:46.974Z,101419.41
2018-09-17T03:56:16.313Z,101429.87
2018-09-17T03:58:45.609Z,101433.70
2018-09-17T04:01:14.920Z,101439.70
2018-09-17T04:03:44.270Z,101442.25
2018-09-17T04:06:13.610Z,101433.34
2018-09-17T04:08:42.831Z,101436.16
2018-09-17T04:11:12.936Z,101433.87
2018-09-17T04:13:42.212Z,101438.44
2018-09-17T04:16:11.555Z,101441.98
2018-09-17T04:18:40.849Z,101437.83
2018-09-17T04:21:10.376Z,101433.22
2018-09-17T04:23:39.677Z,101419.50
2018-09-17T04:26:10.218Z,101420.72
2018-09-17T04:28:40.678Z,101429.27
2018-09-17T04:31:09.949Z,101426.30
2018-09-17T04:33:41.509Z,101420.68
2018-09-17T04:36:21.392Z,101415.42
2018-09-17T04:38:57.780Z,101414.30
2018-09-17T04:41:40.734Z,101410.38
2018-09-17T04:44:17.931Z,101413.67
2018-09-17T04:46:56.445Z,101410.58
2018-09-17T04:49:30.224Z,101412.74
2018-09-17T04:52:14.202Z,101415.30
2018-09-17T04:54:45.344Z,101410.50
2018-09-17T04:57:18.035Z,101410.74
2018-09-17T04:59:49.776Z,101409.64
2018-09-17T05:02:21.960Z,101408.30
2018-09-17T05:04:53.924Z,101407.39
2018-09-17T05:07:27.915Z,101408.62
2018-09-17T05:10:12.197Z,101412.33
2018-09-17T05:12:46.667Z,101415.70
2018-09-17T05:15:22.474Z,101414.89
2018-09-17T05:17:56.934Z,101424.91
2018-09-17T05:20:29.321Z,101416.04
2018-09-17T05:23:11.163Z,101413.59
2018-09-17T05:25:41.606Z,101415.02
2018-09-17T05:28:11.926Z,101408.55
2018-09-17T05:30:43.763Z,101414.30
2018-09-17T05:33:15.731Z,101406.02
2018-09-17T05:36:02.429Z,101407.36
2018-09-17T05:38:36.044Z,101402.23
2018-09-17T05:41:12.027Z,101414.08
2018-09-17T05:43:45.243Z,101411.52
2018-09-17T05:46:18.208Z,101417.05
2018-09-17T05:48:49.926Z,101418.19
2018-09-17T05:51:24.610Z,101415.01
2018-09-17T05:53:58.142Z,101414.30
2018-09-17T05:56:29.642Z,101415.62
2018-09-17T05:59:03.988Z,101420.66
2018-09-17T06:01:35.380Z,101424.11
2018-09-17T06:04:16.855Z,101431.07
2018-09-17T06:06:57.520Z,101428.02
2018-09-17T06:09:35.597Z,101430.95
2018-09-17T06:12:05.893Z,101430.09
2018-09-17T06:14:35.317Z,101428.28
2018-09-17T06:17:04.645Z,101427.67
2018-09-17T06:19:33.973Z,101417.01
2018-09-17T06:22:05.022Z,101433.42
2018-09-17T06:24:34.797Z,101434.05
2018-09-17T06:27:04.901Z,101426.60
2018-09-17T06:29:34.246Z,101427.44
2018-09-17T06:32:03.571Z,101429.19
2018-09-17T06:34:33.086Z,101429.19
2018-09-17T06:37:02.525Z,101439.32
2018-09-17T06:39:31.969Z,101452.55
2018-09-17T06:42:01.547Z,101450.73
2018-09-17T06:44:30.951Z,101452.72
2018-09-17T06:47:00.476Z,101459.19
2018-09-17T06:49:30.183Z,101460.91
2018-09-17T06:51:59.619Z,101458.45
2018-09-17T06:54:29.088Z,101467.03
2018-09-17T06:56:59.054Z,101463.21
2018-09-17T06:59:28.460Z,101464.28
2018-09-17T07:01:59.378Z,101469.62
2018-09-17T07:04:29.939Z,101478.89
2018-09-17T07:06:59.241Z,101478.03
2018-09-17T07:09:28.694Z,101482.08
2018-09-17T07:11:59.385Z,101474.33
2018-09-17T07:14:28.805Z,101475.05
2018-09-17T07:16:58.123Z,101474.28
2018-09-17T07:19:27.567Z,101473.03
2018-09-17T07:21:56.981Z,101470.55
2018-09-17T07:24:26.871Z,101471.09
2018-09-17T07:26:57.764Z,101471.59
2018-09-17T07:29:27.121Z,101471.75
2018-09-17T07:31:56.588Z,101470.53
2018-09-17T07:34:25.972Z,101474.60
2018-09-17T07:36:55.662Z,101482.19
2018-09-17T07:39:24.977Z,101480.05
2018-09-17T07:41:54.727Z,101477.92
2018-09-17T07:44:24.116Z,101484.27
2018-09-17T07:46:53.429Z,101482.04
2018-09-17T07:49:22.769Z,101478.86
2018-09-17T07:51:52.033Z,101488.29
2018-09-17T07:54:21.376Z,101487.00
2018-09-17T07:56:50.639Z,101481.19
2018-09-17T07:59:19.930Z,101485.87
2018-09-17T08:01:49.296Z,101481.95
2018-09-17T08:04:19.519Z,101480.66
2018-09-17T08:06:48.795Z,101483.38
2018-09-17T08:09:18.122Z,101484.73
2018-09-17T08:11:47.535Z,101476.52
2018-09-17T08:14:16.952Z,101482.28
2018-09-17T08:16:46.305Z,101481.80
2018-09-17T08:19:16.627Z,101481.68
2018-09-17T08:21:45.825Z,101484.02
2018-09-17T08:24:15.078Z,101477.90
2018-09-17T08:26:45.097Z,101472.99
2018-09-17T08:29:14.461Z,101460.50
2018-09-17T08:31:43.720Z,101463.82
2018-09-17T08:34:13.880Z,101467.52
2018-09-17T08:36:43.156Z,101474.20
2018-09-17T08:39:13.669Z,101468.11
2018-09-17T08:41:43.942Z,101468.16
2018-09-17T08:44:13.264Z,101473.08
2018-09-17T08:46:42.611Z,101475.61
2018-09-17T08:49:12.454Z,101479.28
2018-09-17T08:51:41.719Z,101480.17
2018-09-17T08:54:10.989Z,101488.80
2018-09-17T08:56:45.361Z,101490.53
2018-09-17T08:59:20.099Z,101473.02
2018-09-17T09:01:54.758Z,101479.73
2018-09-17T09:04:28.351Z,101474.69
2018-09-17T09:07:03.047Z,101478.09
2018-09-17T09:09:32.687Z,101481.00
2018-09-17T09:12:07.405Z,101474.89
2018-09-17T09:14:39.371Z,101473.70
2018-09-17T09:17:11.641Z,101469.16
2018-09-17T09:19:40.986Z,101468.22
2018-09-17T09:22:10.661Z,101477.22
2018-09-17T09:24:40.092Z,101473.07
2018-09-17T09:27:09.304Z,101480.15
2018-09-17T09:29:38.653Z,101480.20
2018-09-17T09:32:08.095Z,101480.02
2018-09-17T09:34:37.455Z,101471.69
2018-09-17T09:37:07.251Z,101479.98
2018-09-17T09:39:36.577Z,101476.38
2018-09-17T09:42:05.906Z,101475.27
2018-09-17T09:44:35.497Z,101468.97
2018-09-17T09:47:05.192Z,101471.67
2018-09-17T09:49:34.486Z,101476.88
2018-09-17T09:52:04.029Z,101460.36
2018-09-17T09:54:33.684Z,101462.55
2018-09-17T09:57:03.817Z,101459.03
2018-09-17T09:59:33.382Z,101460.30
2018-09-17T10:02:07.849Z,101457.81
2018-09-17T10:04:37.149Z,101453.58
2018-09-17T10:07:06.668Z,101448.84
2018-09-17T10:09:41.178Z,101441.50
2018-09-17T10:12:15.814Z,101441.39
2018-09-17T10:14:50.448Z,101434.22
2018-09-17T10:17:24.865Z,101432.28
2018-09-17T10:19:54.232Z,101432.94
2018-09-17T10:22:24.283Z,101428.84
2018-09-17T10:24:53.603Z,101430.89
2018-09-17T10:27:24.080Z,101424.16
2018-09-17T10:29:53.402Z,101424.42
2018-09-17T10:32:22.692Z,101419.85
2018-09-17T10:34:52.715Z,101427.53
2018-09-17T10:37:21.914Z,101422.17
2018-09-17T10:39:51.114Z,101425.45
2018-09-17T10:42:20.979Z,101423.13
2018-09-17T10:44:50.223Z,101416.88
2018-09-17T10:47:19.439Z,101419.18
2018-09-17T10:49:49.697Z,101416.70
2018-09-17T10:52:18.902Z,101410.79
2018-09-17T10:54:48.509Z,101407.84
2018-09-17T10:57:18.104Z,101403.03
2018-09-17T10:59:47.540Z,101414.23
2018-09-17T11:02:16.896Z,101412.03
2018-09-17T11:04:46.672Z,101422.31
2018-09-17T11:09:50.041Z,101422.58
2018-09-17T11:12:19.280Z,101417.08
2018-09-17T11:14:48.493Z,101418.99
2018-09-17T11:17:17.843Z,101414.95
2018-09-17T11:19:47.065Z,101413.17
2018-09-17T11:22:17.051Z,101408.36
2018-09-17T11:24:46.458Z,101409.16
2018-09-17T11:27:15.727Z,101409.21
2018-09-17T11:29:44.999Z,101411.64
2018-09-17T11:32:15.205Z,101411.14
2018-09-17T11:34:44.530Z,101410.31
2018-09-17T11:37:13.830Z,101410.52
2018-09-17T11:39:43.771Z,101414.47
2018-09-17T11:42:13.171Z,101411.34
2018-09-17T11:44:42.523Z,101413.27
2018-09-17T11:47:11.803Z,101413.51
2018-09-17T11:49:41.042Z,101409.72
2018-09-17T11:52:10.345Z,101409.30
2018-09-17T11:54:40.174Z,101420.06
2018-09-17T11:57:09.474Z,101426.20
2018-09-17T11:59:39.138Z,101418.28
2018-09-17T12:02:45.634Z,101411.64
2018-09-17T12:05:18.993Z,101414.61
2018-09-17T12:07:49.274Z,101418.89
2018-09-17T12:10:18.487Z,101425.62
2018-09-17T12:12:47.878Z,101420.55
2018-09-17T12:15:17.124Z,101421.50
2018-09-17T12:17:46.368Z,101425.27
2018-09-17T12:20:15.763Z,101417.50
2018-09-17T12:22:46.079Z,101415.91
2018-09-17T12:25:15.526Z,101415.97
2018-09-17T12:27:45.850Z,101422.33
2018-09-17T12:30:15.185Z,101414.91
2018-09-17T12:32:44.437Z,101417.23
2018-09-17T12:35:13.764Z,101413.85
2018-09-17T12:37:43.106Z,101413.47
2018-09-17T12:40:12.526Z,101411.95
2018-09-17T12:42:41.788Z,101410.58
2018-09-17T12:45:11.100Z,101406.95
2018-09-17T12:47:40.525Z,101411.75
2018-09-17T12:50:09.867Z,101401.15
2018-09-17T12:52:39.396Z,101395.31
2018-09-17T12:55:08.835Z,101394.58
2018-09-17T12:57:38.329Z,101388.57
2018-09-17T13:00:08.886Z,101403.17
2018-09-17T13:02:39.608Z,101394.17
2018-09-17T13:05:09.141Z,101390.03
2018-09-17T13:07:39.550Z,101396.78
2018-09-17T13:10:09.994Z,101391.53
2018-09-17T13:12:39.352Z,101390.78
2018-09-17T13:15:08.770Z,101399.67
2018-09-17T13:17:38.177Z,101402.27
2018-09-17T13:20:08.413Z,101396.98
2018-09-17T13:22:38.070Z,101391.33
2018-09-17T13:25:07.513Z,101387.23
2018-09-17T13:27:37.625Z,101392.33
2018-09-17T13:30:07.640Z,101391.34
2018-09-17T13:32:37.152Z,101396.67
2018-09-17T13:35:07.160Z,101390.85
2018-09-17T13:37:37.124Z,101383.61
2018-09-17T13:40:06.479Z,101386.86
2018-09-17T13:42:37.969Z,101386.73
2018-09-17T13:45:08.908Z,101390.66
2018-09-17T13:47:38.324Z,101385.13
2018-09-17T13:50:07.967Z,101383.80
2018-09-17T13:52:37.511Z,101388.97
2018-09-17T13:55:07.068Z,101387.28
2018-09-17T13:57:36.614Z,101394.13
2018-09-17T14:00:06.765Z,101388.73
2018-09-17T14:02:36.615Z,101387.69
2018-09-17T14:05:06.270Z,101385.26
2018-09-17T14:07:35.663Z,101392.20
2018-09-17T14:10:05.955Z,101373.30
2018-09-17T14:12:35.368Z,101371.77
2018-09-17T14:15:06.049Z,101369.06
2018-09-17T14:17:35.590Z,101371.54
2018-09-17T14:20:07.457Z,101375.67
2018-09-17T14:22:36.951Z,101369.47
2018-09-17T14:25:06.786Z,101364.52
2018-09-17T14:27:36.478Z,101370.64
2018-09-17T14:30:06.072Z,101364.52
2018-09-17T14:32:41.370Z,101365.64
2018-09-17T14:35:10.978Z,101363.63
2018-09-17T14:37:40.773Z,101361.38
2018-09-17T14:40:10.342Z,101358.64
2018-09-17T14:42:39.633Z,101362.69
2018-09-17T14:45:09.497Z,101359.27
2018-09-17T14:47:39.417Z,101350.69
2018-09-17T14:50:09.173Z,101357.80
2018-09-17T14:52:38.790Z,101350.72
2018-09-17T14:55:09.255Z,101358.59
2018-09-17T14:57:38.618Z,101353.40
2018-09-17T15:00:08.194Z,101352.03
2018-09-17T15:02:37.993Z,101348.40
2018-09-17T15:05:07.478Z,101348.91
2018-09-17T15:07:37.041Z,101351.36
2018-09-17T15:10:07.177Z,101344.86
2018-09-17T15:12:37.006Z,101353.45
2018-09-17T15:15:06.662Z,101351.37
2018-09-17T15:17:36.185Z,101347.59
2018-09-17T15:20:06.798Z,101348.96
2018-09-17T15:22:36.316Z,101350.62
2018-09-17T15:25:05.734Z,101354.67
2018-09-17T15:27:35.287Z,101349.97
2018-09-17T15:30:05.529Z,101357.33
2018-09-17T15:32:36.262Z,101354.99
2018-09-17T15:35:05.653Z,101350.48
2018-09-17T15:37:36.003Z,101343.75
2018-09-17T15:41:10.367Z,101348.52
2018-09-17T15:43:39.573Z,101348.91
2018-09-17T15:46:08.931Z,101347.27
2018-09-17T15:48:38.405Z,101340.77
2018-09-17T15:51:08.142Z,101338.41
2018-09-17T15:53:37.707Z,101341.48
2018-09-17T15:56:07.163Z,101333.00
2018-09-17T15:58:37.149Z,101324.30
2018-09-17T16:01:07.125Z,101330.69
2018-09-17T16:03:36.767Z,101328.29
2018-09-17T16:06:06.188Z,101324.76
2018-09-17T16:08:35.873Z,101324.06
2018-09-17T16:11:06.556Z,101324.42
2018-09-17T16:13:36.210Z,101328.37
2018-09-17T16:16:05.604Z,101319.38
2018-09-17T16:18:35.071Z,101319.09
2018-09-17T16:21:04.432Z,101319.30
2018-09-17T16:23:33.880Z,101315.91
2018-09-17T16:26:03.281Z,101322.05
2018-09-17T16:28:32.751Z,101319.02
2018-09-17T16:31:02.116Z,101312.91
2018-09-17T16:33:31.521Z,101315.97
2018-09-17T16:36:01.002Z,101317.17
2018-09-17T16:38:30.748Z,101320.11
2018-09-17T16:41:00.352Z,101322.16
2018-09-17T16:43:29.928Z,101316.23
2018-09-17T16:45:59.660Z,101319.83
2018-09-17T16:48:30.495Z,101320.48
2018-09-17T16:51:00.331Z,101322.07
2018-09-17T16:53:30.417Z,101324.11
2018-09-17T16:56:00.707Z,101323.59
2018-09-17T16:58:30.938Z,101321.74
2018-09-17T17:01:00.745Z,101326.65
2018-09-17T17:03:30.488Z,101326.30
2018-09-17T17:06:00.121Z,101330.23
2018-09-17T17:08:29.964Z,101326.33
2018-09-17T17:11:00.884Z,101335.50
2018-09-17T17:13:30.309Z,101328.55
2018-09-17T17:15:59.830Z,101328.36
2018-09-17T17:18:30.516Z,101335.16
2018-09-17T17:22:03.727Z,101333.47
2018-09-17T17:24:33.321Z,101341.45
2018-09-17T17:27:02.915Z,101330.53
2018-09-17T17:29:32.423Z,101336.45
2018-09-17T17:32:02.408Z,101330.64
2018-09-17T17:34:31.890Z,101331.67
2018-09-17T17:37:02.208Z,101326.38
2018-09-17T17:39:32.261Z,101335.48
2018-09-17T17:42:01.688Z,101335.14
2018-09-17T17:44:31.623Z,101337.69
2018-09-17T17:47:01.316Z,101344.44
2018-09-17T17:49:31.123Z,101338.83
2018-09-17T17:52:01.606Z,101338.11
2018-09-17T17:54:31.197Z,101338.27
2018-09-17T17:57:00.965Z,101345.70
2018-09-17T17:59:30.570Z,101341.28
2018-09-17T18:02:00.352Z,101339.85
2018-09-17T18:04:29.887Z,101335.95
2018-09-17T18:06:59.440Z,101339.16
2018-09-17T18:12:08.663Z,101341.14
2018-09-17T18:14:38.195Z,101341.30
2018-09-17T18:17:07.632Z,101340.75
2018-09-17T18:19:37.243Z,101345.30
2018-09-17T18:22:07.326Z,101348.97
2018-09-17T18:24:36.969Z,101348.06
2018-09-17T18:27:06.496Z,101347.98
2018-09-17T18:29:35.889Z,101348.59
2018-09-17T18:32:05.522Z,101351.30
2018-09-17T18:34:35.839Z,101345.54
2018-09-17T18:37:05.448Z,101348.59
2018-09-17T18:39:35.013Z,101348.14
2018-09-17T18:42:05.387Z,101344.36
2018-09-17T18:44:35.117Z,101339.19
2018-09-17T18:47:04.687Z,101341.39
2018-09-17T18:49:34.425Z,101334.36
2018-09-17T18:52:04.001Z,101343.07
2018-09-17T18:54:34.657Z,101337.14
2018-09-17T18:57:04.734Z,101335.81
2018-09-17T18:59:34.614Z,101336.32
2018-09-17T19:02:04.248Z,101336.64
2018-09-17T19:04:33.790Z,101330.46
2018-09-17T19:07:03.208Z,101335.52
2018-09-17T19:09:39.309Z,101336.11
2018-09-17T19:12:08.791Z,101335.83
2018-09-17T19:14:43.424Z,101334.47
2018-09-17T19:17:17.922Z,101330.66
2018-09-17T19:19:47.349Z,101335.20
2018-09-17T19:22:22.215Z,101329.78
2018-09-17T19:24:51.264Z,101328.17
2018-09-17T19:27:20.566Z,101321.52
2018-09-17T19:29:49.811Z,101320.84
2018-09-17T19:32:19.022Z,101322.94
2018-09-17T19:34:48.387Z,101321.06
2018-09-17T19:37:22.779Z,101323.55
2018-09-17T19:39:57.475Z,101320.99
2018-09-17T19:42:26.820Z,101327.41
2018-09-17T19:45:01.278Z,101324.20
2018-09-17T19:47:31.556Z,101318.28
2018-09-17T19:50:01.132Z,101316.98
2018-09-17T19:52:30.464Z,101318.45
2018-09-17T19:55:01.748Z,101313.73
2018-09-17T19:58:38.037Z,101307.85
2018-09-17T20:01:08.468Z,101298.74
2018-09-17T20:03:37.734Z,101307.38
2018-09-17T20:06:12.256Z,101298.02
2018-09-17T20:08:41.701Z,101295.36
2018-09-17T20:11:10.952Z,101294.16
2018-09-17T20:13:40.272Z,101299.00
2018-09-17T20:16:09.636Z,101292.00
2018-09-17T20:18:38.874Z,101289.95
2018-09-17T20:21:08.165Z,101293.16
2018-09-17T20:23:37.456Z,101292.50
2018-09-17T20:26:06.894Z,101292.28
2018-09-17T20:28:36.302Z,101296.01
2018-09-17T20:31:05.962Z,101292.94
2018-09-17T20:33:36.557Z,101289.59
2018-09-17T20:36:06.326Z,101290.53
2018-09-17T20:38:35.829Z,101291.10
2018-09-17T20:41:05.157Z,101296.67
2018-09-17T20:43:35.300Z,101291.31
2018-09-17T20:46:04.671Z,101289.05
2018-09-17T20:48:34.002Z,101289.70
2018-09-17T20:51:03.543Z,101281.45
2018-09-17T20:53:33.042Z,101283.71
2018-09-17T20:56:02.541Z,101288.06
2018-09-17T20:58:32.679Z,101282.86
2018-09-17T21:01:02.339Z,101282.02
2018-09-17T21:03:31.728Z,101277.70
2018-09-17T21:06:01.268Z,101280.81
2018-09-17T21:08:30.838Z,101277.41
2018-09-17T21:11:00.363Z,101272.79
2018-09-17T21:13:30.563Z,101272.84
2018-09-17T21:15:59.928Z,101267.87
2018-09-17T21:18:29.415Z,101275.77
2018-09-17T21:20:59.616Z,101269.62
2018-09-17T21:23:29.693Z,101266.72
2018-09-17T21:26:00.722Z,101264.10
2018-09-17T21:28:30.590Z,101257.22
2018-09-17T21:31:01.465Z,101258.86
2018-09-17T21:33:31.906Z,101251.75
2018-09-17T21:36:01.826Z,101249.95
2018-09-17T21:38:31.656Z,101248.61
2018-09-17T21:41:01.280Z,101247.25
2018-09-17T21:43:31.138Z,101249.60
2018-09-17T21:46:00.941Z,101248.38
2018-09-17T21:48:30.686Z,101244.13
2018-09-17T21:51:00.377Z,101245.55
2018-09-17T21:53:30.442Z,101238.45
2018-09-17T21:56:00.654Z,101245.13
2018-09-17T21:58:30.534Z,101240.73
2018-09-17T22:01:00.205Z,101241.08
2018-09-17T22:03:31.413Z,101237.74
2018-09-17T22:06:01.756Z,101242.85
2018-09-17T22:08:31.662Z,101246.34
2018-09-17T22:11:01.145Z,101242.44
2018-09-17T22:13:31.681Z,101236.94
2018-09-17T22:16:01.080Z,101243.33
2018-09-17T22:18:43.008Z,101236.30
2018-09-17T22:21:16.148Z,101235.50
2018-09-17T22:23:46.236Z,101239.23
2018-09-17T22:26:15.509Z,101229.01
2018-09-17T22:28:45.215Z,101228.02
2018-09-17T22:31:14.541Z,101222.33
2018-09-17T22:33:43.920Z,101223.89
2018-09-17T22:36:13.173Z,101225.67
2018-09-17T22:38:42.526Z,101223.33
2018-09-17T22:41:11.994Z,101219.63
2018-09-17T22:43:41.521Z,101213.88
2018-09-17T22:46:10.884Z,101211.82
2018-09-17T22:48:40.267Z,101212.39
2018-09-17T22:51:09.799Z,101214.23
2018-09-17T22:53:39.214Z,101207.28
2018-09-17T22:56:09.386Z,101202.73
2018-09-17T22:58:38.798Z,101200.39
2018-09-17T23:01:08.154Z,101203.02
2018-09-17T23:03:37.634Z,101201.22
2018-09-17T23:06:07.099Z,101193.69
2018-09-17T23:08:37.470Z,101195.04
2018-09-17T23:11:07.162Z,101192.95
2018-09-17T23:13:36.478Z,101191.03
2018-09-17T23:16:05.892Z,101182.80
2018-09-17T23:18:36.052Z,101176.50
2018-09-17T23:21:05.592Z,101175.86
2018-09-17T23:23:35.393Z,101172.88
2018-09-17T23:26:04.818Z,101178.73
2018-09-17T23:28:34.328Z,101171.63
2018-09-17T23:31:03.936Z,101169.35
2018-09-17T23:33:33.370Z,101168.64
2018-09-17T23:36:02.725Z,101164.89
2018-09-17T23:38:32.579Z,101170.89
2018-09-17T23:41:02.004Z,101164.22
2018-09-17T23:43:31.471Z,101166.71
2018-09-17T23:46:02.246Z,101162.31
2018-09-17T23:48:31.805Z,101163.02
2018-09-17T23:51:01.245Z,101162.02
2018-09-17T23:53:30.722Z,101166.28
2018-09-17T23:56:00.153Z,101157.83
2018-09-17T23:58:29.523Z,101158.69
